sensor_id;sensor_type;location;lat;lon;timestamp;P1;durP1;ratioP1;P2;durP2;ratioP2
53718;SDS011;39616;48.872;9.390;2022-11-20T00:00:20;20.35;;;8.18;;
53718;SDS011;39616;48.872;9.390;2022-11-20T00:02:50;16.55;;;8.07;;
53718;SDS011;39616;48.872;9.390;2022-11-20T00:05:20;18.25;;;8.20;;
53718;SDS011;39616;48.872;9.390;2022-11-20T00:07:51;16.10;;;8.32;;
53718;SDS011;39616;48.872;9.390;2022-11-20T00:10:21;16.38;;;8.80;;
53718;SDS011;39616;48.872;9.390;2022-11-20T00:12:51;19.73;;;7.53;;
53718;SDS011;39616;48.872;9.390;2022-11-20T00:15:22;18.73;;;9.10;;
53718;SDS011;39616;48.872;9.390;2022-11-20T00:17:52;20.05;;;9.18;;
53718;SDS011;39616;48.872;9.390;2022-11-20T00:20:22;16.08;;;7.57;;
53718;SDS011;39616;48.872;9.390;2022-11-20T00:22:53;19.95;;;11.90;;
53718;SDS011;39616;48.872;9.390;2022-11-20T00:25:23;22.80;;;11.27;;
53718;SDS011;39616;48.872;9.390;2022-11-20T00:27:53;21.35;;;9.85;;
53718;SDS011;39616;48.872;9.390;2022-11-20T00:30:23;25.35;;;16.90;;
53718;SDS011;39616;48.872;9.390;2022-11-20T00:32:55;28.35;;;14.20;;
53718;SDS011;39616;48.872;9.390;2022-11-20T00:35:26;19.05;;;9.85;;
53718;SDS011;39616;48.872;9.390;2022-11-20T00:37:57;20.05;;;8.65;;
53718;SDS011;39616;48.872;9.390;2022-11-20T00:40:27;19.35;;;9.02;;
53718;SDS011;39616;48.872;9.390;2022-11-20T00:42:57;23.20;;;10.73;;
53718;SDS011;39616;48.872;9.390;2022-11-20T00:45:28;23.88;;;10.45;;
53718;SDS011;39616;48.872;9.390;2022-11-20T00:47:58;22.42;;;9.75;;
53718;SDS011;39616;48.872;9.390;2022-11-20T00:50:28;24.80;;;10.93;;
53718;SDS011;39616;48.872;9.390;2022-11-20T00:52:58;24.95;;;10.88;;
53718;SDS011;39616;48.872;9.390;2022-11-20T00:55:29;28.55;;;9.90;;
53718;SDS011;39616;48.872;9.390;2022-11-20T00:57:59;20.98;;;10.32;;
53718;SDS011;39616;48.872;9.390;2022-11-20T01:00:32;23.38;;;10.30;;
53718;SDS011;39616;48.872;9.390;2022-11-20T01:03:02;23.75;;;10.57;;
53718;SDS011;39616;48.872;9.390;2022-11-20T01:05:34;25.42;;;10.80;;
53718;SDS011;39616;48.872;9.390;2022-11-20T01:08:05;20.85;;;10.68;;
53718;SDS011;39616;48.872;9.390;2022-11-20T01:10:35;26.85;;;10.82;;
53718;SDS011;39616;48.872;9.390;2022-11-20T01:13:06;28.65;;;11.52;;
53718;SDS011;39616;48.872;9.390;2022-11-20T01:15:55;25.48;;;10.68;;
53718;SDS011;39616;48.872;9.390;2022-11-20T01:18:25;22.55;;;9.60;;
53718;SDS011;39616;48.872;9.390;2022-11-20T01:20:55;22.98;;;9.68;;
53718;SDS011;39616;48.872;9.390;2022-11-20T01:23:31;23.27;;;10.15;;
53718;SDS011;39616;48.872;9.390;2022-11-20T01:26:06;24.92;;;10.40;;
53718;SDS011;39616;48.872;9.390;2022-11-20T01:28:39;22.20;;;11.05;;
53718;SDS011;39616;48.872;9.390;2022-11-20T01:31:11;24.17;;;10.80;;
53718;SDS011;39616;48.872;9.390;2022-11-20T01:33:43;25.60;;;10.95;;
53718;SDS011;39616;48.872;9.390;2022-11-20T01:36:15;23.15;;;11.68;;
53718;SDS011;39616;48.872;9.390;2022-11-20T01:38:46;29.17;;;13.27;;
53718;SDS011;39616;48.872;9.390;2022-11-20T01:41:16;28.30;;;13.00;;
53718;SDS011;39616;48.872;9.390;2022-11-20T01:44:05;26.63;;;13.05;;
53718;SDS011;39616;48.872;9.390;2022-11-20T01:46:36;21.10;;;11.60;;
53718;SDS011;39616;48.872;9.390;2022-11-20T01:49:14;26.70;;;11.38;;
53718;SDS011;39616;48.872;9.390;2022-11-20T01:51:50;25.98;;;11.98;;
53718;SDS011;39616;48.872;9.390;2022-11-20T01:54:44;24.75;;;11.68;;
53718;SDS011;39616;48.872;9.390;2022-11-20T01:57:22;28.67;;;11.88;;
53718;SDS011;39616;48.872;9.390;2022-11-20T01:59:56;21.83;;;10.80;;
53718;SDS011;39616;48.872;9.390;2022-11-20T02:02:34;15.50;;;8.45;;
53718;SDS011;39616;48.872;9.390;2022-11-20T02:05:09;19.92;;;9.43;;
53718;SDS011;39616;48.872;9.390;2022-11-20T02:07:46;18.52;;;7.88;;
53718;SDS011;39616;48.872;9.390;2022-11-20T02:10:18;15.45;;;6.72;;
53718;SDS011;39616;48.872;9.390;2022-11-20T02:12:48;10.48;;;6.70;;
53718;SDS011;39616;48.872;9.390;2022-11-20T02:15:54;9.68;;;5.60;;
53718;SDS011;39616;48.872;9.390;2022-11-20T02:18:25;9.18;;;6.00;;
53718;SDS011;39616;48.872;9.390;2022-11-20T02:20:59;10.32;;;5.80;;
53718;SDS011;39616;48.872;9.390;2022-11-20T02:23:41;8.23;;;5.28;;
53718;SDS011;39616;48.872;9.390;2022-11-20T02:26:40;8.73;;;4.78;;
53718;SDS011;39616;48.872;9.390;2022-11-20T02:29:28;8.38;;;4.43;;
53718;SDS011;39616;48.872;9.390;2022-11-20T02:32:02;8.77;;;3.65;;
53718;SDS011;39616;48.872;9.390;2022-11-20T02:34:33;10.40;;;4.18;;
53718;SDS011;39616;48.872;9.390;2022-11-20T02:37:03;9.38;;;5.63;;
53718;SDS011;39616;48.872;9.390;2022-11-20T02:39:34;5.75;;;3.92;;
53718;SDS011;39616;48.872;9.390;2022-11-20T02:42:04;7.18;;;3.38;;
53718;SDS011;39616;48.872;9.390;2022-11-20T02:44:34;5.07;;;3.58;;
53718;SDS011;39616;48.872;9.390;2022-11-20T02:47:05;5.78;;;3.40;;
53718;SDS011;39616;48.872;9.390;2022-11-20T02:49:35;4.38;;;2.97;;
53718;SDS011;39616;48.872;9.390;2022-11-20T02:52:05;6.90;;;3.38;;
53718;SDS011;39616;48.872;9.390;2022-11-20T02:54:35;4.63;;;3.38;;
53718;SDS011;39616;48.872;9.390;2022-11-20T02:57:06;6.72;;;3.53;;
53718;SDS011;39616;48.872;9.390;2022-11-20T02:59:37;5.97;;;5.28;;
53718;SDS011;39616;48.872;9.390;2022-11-20T03:02:07;4.93;;;3.40;;
53718;SDS011;39616;48.872;9.390;2022-11-20T03:04:37;9.43;;;4.38;;
53718;SDS011;39616;48.872;9.390;2022-11-20T03:07:08;4.15;;;3.22;;
53718;SDS011;39616;48.872;9.390;2022-11-20T03:09:39;5.55;;;3.42;;
53718;SDS011;39616;48.872;9.390;2022-11-20T03:12:10;6.75;;;3.40;;
53718;SDS011;39616;48.872;9.390;2022-11-20T03:14:40;4.43;;;3.35;;
53718;SDS011;39616;48.872;9.390;2022-11-20T03:17:10;5.53;;;3.50;;
53718;SDS011;39616;48.872;9.390;2022-11-20T03:19:41;4.35;;;2.45;;
53718;SDS011;39616;48.872;9.390;2022-11-20T03:22:11;3.40;;;2.03;;
53718;SDS011;39616;48.872;9.390;2022-11-20T03:24:41;3.13;;;2.30;;
53718;SDS011;39616;48.872;9.390;2022-11-20T03:27:12;6.07;;;2.38;;
53718;SDS011;39616;48.872;9.390;2022-11-20T03:29:42;3.35;;;2.00;;
53718;SDS011;39616;48.872;9.390;2022-11-20T03:32:12;7.70;;;2.15;;
53718;SDS011;39616;48.872;9.390;2022-11-20T03:34:42;2.03;;;1.58;;
53718;SDS011;39616;48.872;9.390;2022-11-20T03:37:13;3.90;;;1.77;;
53718;SDS011;39616;48.872;9.390;2022-11-20T03:39:43;4.60;;;2.10;;
53718;SDS011;39616;48.872;9.390;2022-11-20T03:42:14;27.33;;;12.25;;
53718;SDS011;39616;48.872;9.390;2022-11-20T03:45:03;24.38;;;11.07;;
53718;SDS011;39616;48.872;9.390;2022-11-20T03:47:34;9.48;;;5.10;;
53718;SDS011;39616;48.872;9.390;2022-11-20T03:50:04;11.15;;;5.75;;
53718;SDS011;39616;48.872;9.390;2022-11-20T03:52:35;8.10;;;3.90;;
53718;SDS011;39616;48.872;9.390;2022-11-20T03:55:05;5.00;;;3.17;;
53718;SDS011;39616;48.872;9.390;2022-11-20T03:57:36;5.40;;;3.55;;
53718;SDS011;39616;48.872;9.390;2022-11-20T04:00:06;4.45;;;2.85;;
53718;SDS011;39616;48.872;9.390;2022-11-20T04:02:37;7.63;;;2.63;;
53718;SDS011;39616;48.872;9.390;2022-11-20T04:05:08;4.90;;;2.55;;
53718;SDS011;39616;48.872;9.390;2022-11-20T04:07:38;6.20;;;2.15;;
53718;SDS011;39616;48.872;9.390;2022-11-20T04:10:08;2.85;;;2.25;;
53718;SDS011;39616;48.872;9.390;2022-11-20T04:12:38;3.00;;;2.20;;
53718;SDS011;39616;48.872;9.390;2022-11-20T04:15:09;2.40;;;2.05;;
53718;SDS011;39616;48.872;9.390;2022-11-20T04:17:39;3.70;;;2.47;;
53718;SDS011;39616;48.872;9.390;2022-11-20T04:20:09;5.30;;;3.50;;
53718;SDS011;39616;48.872;9.390;2022-11-20T04:22:40;4.35;;;2.60;;
53718;SDS011;39616;48.872;9.390;2022-11-20T04:25:10;8.57;;;2.60;;
53718;SDS011;39616;48.872;9.390;2022-11-20T04:27:40;2.72;;;2.05;;
53718;SDS011;39616;48.872;9.390;2022-11-20T04:30:11;4.32;;;1.98;;
53718;SDS011;39616;48.872;9.390;2022-11-20T04:32:41;5.32;;;2.17;;
53718;SDS011;39616;48.872;9.390;2022-11-20T04:35:12;4.20;;;2.28;;
53718;SDS011;39616;48.872;9.390;2022-11-20T04:37:42;3.47;;;2.08;;
53718;SDS011;39616;48.872;9.390;2022-11-20T04:40:12;3.88;;;2.08;;
53718;SDS011;39616;48.872;9.390;2022-11-20T04:42:43;3.95;;;2.30;;
53718;SDS011;39616;48.872;9.390;2022-11-20T04:45:13;3.03;;;1.90;;
53718;SDS011;39616;48.872;9.390;2022-11-20T04:47:43;3.35;;;2.15;;
53718;SDS011;39616;48.872;9.390;2022-11-20T04:50:14;5.60;;;2.20;;
53718;SDS011;39616;48.872;9.390;2022-11-20T04:52:44;2.10;;;1.90;;
53718;SDS011;39616;48.872;9.390;2022-11-20T04:55:15;4.60;;;1.98;;
53718;SDS011;39616;48.872;9.390;2022-11-20T04:57:45;4.95;;;2.80;;
53718;SDS011;39616;48.872;9.390;2022-11-20T05:00:19;2.33;;;2.08;;
53718;SDS011;39616;48.872;9.390;2022-11-20T05:02:49;4.40;;;2.10;;
53718;SDS011;39616;48.872;9.390;2022-11-20T05:05:19;3.47;;;1.88;;
53718;SDS011;39616;48.872;9.390;2022-11-20T05:07:50;3.05;;;1.67;;
53718;SDS011;39616;48.872;9.390;2022-11-20T05:10:20;3.05;;;1.92;;
53718;SDS011;39616;48.872;9.390;2022-11-20T05:12:50;4.20;;;1.80;;
53718;SDS011;39616;48.872;9.390;2022-11-20T05:15:21;3.05;;;2.20;;
53718;SDS011;39616;48.872;9.390;2022-11-20T05:17:51;3.45;;;2.10;;
53718;SDS011;39616;48.872;9.390;2022-11-20T05:20:22;3.72;;;2.30;;
53718;SDS011;39616;48.872;9.390;2022-11-20T05:22:56;6.63;;;2.17;;
53718;SDS011;39616;48.872;9.390;2022-11-20T05:25:26;3.92;;;1.92;;
53718;SDS011;39616;48.872;9.390;2022-11-20T05:27:57;2.40;;;1.95;;
53718;SDS011;39616;48.872;9.390;2022-11-20T05:30:27;4.63;;;1.88;;
53718;SDS011;39616;48.872;9.390;2022-11-20T05:33:00;2.35;;;1.98;;
53718;SDS011;39616;48.872;9.390;2022-11-20T05:35:30;3.85;;;1.65;;
53718;SDS011;39616;48.872;9.390;2022-11-20T05:38:00;2.65;;;1.85;;
53718;SDS011;39616;48.872;9.390;2022-11-20T05:40:31;3.47;;;1.80;;
53718;SDS011;39616;48.872;9.390;2022-11-20T05:43:01;3.67;;;2.17;;
53718;SDS011;39616;48.872;9.390;2022-11-20T05:45:31;1.85;;;1.70;;
53718;SDS011;39616;48.872;9.390;2022-11-20T05:48:02;3.53;;;1.98;;
53718;SDS011;39616;48.872;9.390;2022-11-20T05:50:32;2.83;;;1.60;;
53718;SDS011;39616;48.872;9.390;2022-11-20T05:53:03;3.00;;;1.52;;
53718;SDS011;39616;48.872;9.390;2022-11-20T05:55:33;2.00;;;1.38;;
53718;SDS011;39616;48.872;9.390;2022-11-20T05:58:03;2.25;;;1.60;;
53718;SDS011;39616;48.872;9.390;2022-11-20T06:00:33;2.35;;;1.65;;
53718;SDS011;39616;48.872;9.390;2022-11-20T06:03:04;1.60;;;1.25;;
53718;SDS011;39616;48.872;9.390;2022-11-20T06:05:34;3.38;;;1.90;;
53718;SDS011;39616;48.872;9.390;2022-11-20T06:08:04;3.72;;;1.83;;
53718;SDS011;39616;48.872;9.390;2022-11-20T06:10:35;2.20;;;2.00;;
53718;SDS011;39616;48.872;9.390;2022-11-20T06:13:05;2.10;;;1.70;;
53718;SDS011;39616;48.872;9.390;2022-11-20T06:15:35;2.15;;;1.60;;
53718;SDS011;39616;48.872;9.390;2022-11-20T06:18:05;2.03;;;1.58;;
53718;SDS011;39616;48.872;9.390;2022-11-20T06:20:36;3.65;;;1.60;;
53718;SDS011;39616;48.872;9.390;2022-11-20T06:23:06;6.78;;;3.38;;
53718;SDS011;39616;48.872;9.390;2022-11-20T06:25:40;2.50;;;1.98;;
53718;SDS011;39616;48.872;9.390;2022-11-20T06:28:11;2.47;;;1.77;;
53718;SDS011;39616;48.872;9.390;2022-11-20T06:30:44;3.05;;;1.42;;
53718;SDS011;39616;48.872;9.390;2022-11-20T06:33:18;3.08;;;1.50;;
53718;SDS011;39616;48.872;9.390;2022-11-20T06:35:48;1.50;;;1.40;;
53718;SDS011;39616;48.872;9.390;2022-11-20T06:38:19;2.28;;;1.92;;
53718;SDS011;39616;48.872;9.390;2022-11-20T06:40:51;2.35;;;1.48;;
53718;SDS011;39616;48.872;9.390;2022-11-20T06:43:23;1.92;;;1.45;;
53718;SDS011;39616;48.872;9.390;2022-11-20T06:45:55;3.25;;;1.88;;
53718;SDS011;39616;48.872;9.390;2022-11-20T06:48:27;4.22;;;1.70;;
53718;SDS011;39616;48.872;9.390;2022-11-20T06:50:58;3.15;;;1.80;;
53718;SDS011;39616;48.872;9.390;2022-11-20T06:53:28;1.67;;;1.20;;
53718;SDS011;39616;48.872;9.390;2022-11-20T06:55:58;15.80;;;7.95;;
53718;SDS011;39616;48.872;9.390;2022-11-20T06:58:29;13.77;;;6.03;;
53718;SDS011;39616;48.872;9.390;2022-11-20T07:01:05;2.28;;;2.08;;
53718;SDS011;39616;48.872;9.390;2022-11-20T07:03:39;3.22;;;2.92;;
53718;SDS011;39616;48.872;9.390;2022-11-20T07:06:09;2.55;;;1.80;;
53718;SDS011;39616;48.872;9.390;2022-11-20T07:08:40;2.95;;;2.15;;
53718;SDS011;39616;48.872;9.390;2022-11-20T07:11:11;5.40;;;1.52;;
53718;SDS011;39616;48.872;9.390;2022-11-20T07:13:43;4.45;;;1.70;;
53718;SDS011;39616;48.872;9.390;2022-11-20T07:16:13;2.03;;;1.60;;
53718;SDS011;39616;48.872;9.390;2022-11-20T07:18:47;2.35;;;2.15;;
53718;SDS011;39616;48.872;9.390;2022-11-20T07:21:18;2.13;;;1.58;;
53718;SDS011;39616;48.872;9.390;2022-11-20T07:23:48;1.63;;;1.52;;
53718;SDS011;39616;48.872;9.390;2022-11-20T07:26:18;1.60;;;1.50;;
53718;SDS011;39616;48.872;9.390;2022-11-20T07:28:49;3.20;;;1.73;;
53718;SDS011;39616;48.872;9.390;2022-11-20T07:31:19;2.50;;;1.80;;
53718;SDS011;39616;48.872;9.390;2022-11-20T07:33:50;1.67;;;1.58;;
53718;SDS011;39616;48.872;9.390;2022-11-20T07:36:20;3.13;;;1.77;;
53718;SDS011;39616;48.872;9.390;2022-11-20T07:38:50;3.47;;;1.80;;
53718;SDS011;39616;48.872;9.390;2022-11-20T07:41:21;2.38;;;1.42;;
53718;SDS011;39616;48.872;9.390;2022-11-20T07:43:51;2.17;;;1.48;;
53718;SDS011;39616;48.872;9.390;2022-11-20T07:46:21;2.35;;;1.70;;
53718;SDS011;39616;48.872;9.390;2022-11-20T07:48:52;2.30;;;1.55;;
53718;SDS011;39616;48.872;9.390;2022-11-20T07:51:22;5.68;;;5.10;;
53718;SDS011;39616;48.872;9.390;2022-11-20T07:53:52;3.15;;;2.03;;
53718;SDS011;39616;48.872;9.390;2022-11-20T07:56:23;18.08;;;9.30;;
53718;SDS011;39616;48.872;9.390;2022-11-20T07:58:53;27.95;;;12.70;;
53718;SDS011;39616;48.872;9.390;2022-11-20T08:01:23;53.85;;;23.33;;
53718;SDS011;39616;48.872;9.390;2022-11-20T08:03:54;7.22;;;3.22;;
53718;SDS011;39616;48.872;9.390;2022-11-20T08:06:24;20.20;;;9.93;;
53718;SDS011;39616;48.872;9.390;2022-11-20T08:08:55;3.92;;;1.90;;
53718;SDS011;39616;48.872;9.390;2022-11-20T08:11:25;7.43;;;3.95;;
53718;SDS011;39616;48.872;9.390;2022-11-20T08:14:14;21.15;;;10.07;;
53718;SDS011;39616;48.872;9.390;2022-11-20T08:16:46;5.40;;;3.40;;
53718;SDS011;39616;48.872;9.390;2022-11-20T08:19:18;3.95;;;1.65;;
53718;SDS011;39616;48.872;9.390;2022-11-20T08:21:48;3.42;;;2.35;;
53718;SDS011;39616;48.872;9.390;2022-11-20T08:24:19;4.38;;;2.83;;
53718;SDS011;39616;48.872;9.390;2022-11-20T08:26:49;3.67;;;1.90;;
53718;SDS011;39616;48.872;9.390;2022-11-20T08:29:20;2.67;;;1.60;;
53718;SDS011;39616;48.872;9.390;2022-11-20T08:31:50;4.43;;;1.80;;
53718;SDS011;39616;48.872;9.390;2022-11-20T08:34:20;2.25;;;1.80;;
53718;SDS011;39616;48.872;9.390;2022-11-20T08:36:50;3.42;;;1.55;;
53718;SDS011;39616;48.872;9.390;2022-11-20T08:39:22;4.05;;;1.70;;
53718;SDS011;39616;48.872;9.390;2022-11-20T08:41:52;1.80;;;1.30;;
53718;SDS011;39616;48.872;9.390;2022-11-20T08:44:22;5.28;;;1.98;;
53718;SDS011;39616;48.872;9.390;2022-11-20T08:46:53;1.42;;;1.30;;
53718;SDS011;39616;48.872;9.390;2022-11-20T08:49:23;2.50;;;1.40;;
53718;SDS011;39616;48.872;9.390;2022-11-20T08:51:53;1.27;;;1.17;;
53718;SDS011;39616;48.872;9.390;2022-11-20T08:54:25;3.58;;;1.48;;
53718;SDS011;39616;48.872;9.390;2022-11-20T08:56:55;2.45;;;1.35;;
53718;SDS011;39616;48.872;9.390;2022-11-20T08:59:25;5.05;;;1.60;;
53718;SDS011;39616;48.872;9.390;2022-11-20T09:01:56;2.03;;;1.50;;
53718;SDS011;39616;48.872;9.390;2022-11-20T09:04:26;2.17;;;1.35;;
53718;SDS011;39616;48.872;9.390;2022-11-20T09:06:56;1.42;;;1.30;;
53718;SDS011;39616;48.872;9.390;2022-11-20T09:09:27;2.33;;;1.60;;
53718;SDS011;39616;48.872;9.390;2022-11-20T09:11:57;2.33;;;1.55;;
53718;SDS011;39616;48.872;9.390;2022-11-20T09:14:27;1.98;;;1.70;;
53718;SDS011;39616;48.872;9.390;2022-11-20T09:16:59;2.58;;;1.42;;
53718;SDS011;39616;48.872;9.390;2022-11-20T09:19:30;1.70;;;1.10;;
53718;SDS011;39616;48.872;9.390;2022-11-20T09:22:00;1.35;;;1.25;;
53718;SDS011;39616;48.872;9.390;2022-11-20T09:24:30;2.30;;;1.10;;
53718;SDS011;39616;48.872;9.390;2022-11-20T09:27:02;1.20;;;1.00;;
53718;SDS011;39616;48.872;9.390;2022-11-20T09:29:34;1.83;;;1.10;;
53718;SDS011;39616;48.872;9.390;2022-11-20T09:32:04;1.67;;;1.10;;
53718;SDS011;39616;48.872;9.390;2022-11-20T09:34:35;1.42;;;0.98;;
53718;SDS011;39616;48.872;9.390;2022-11-20T09:37:05;1.25;;;1.00;;
53718;SDS011;39616;48.872;9.390;2022-11-20T09:39:35;3.42;;;1.00;;
53718;SDS011;39616;48.872;9.390;2022-11-20T09:45:03;50.65;;;30.88;;
53718;SDS011;39616;48.872;9.390;2022-11-20T09:53:51;1.20;;;0.90;;
53718;SDS011;39616;48.872;9.390;2022-11-20T09:56:44;0.90;;;0.90;;
53718;SDS011;39616;48.872;9.390;2022-11-20T09:59:31;2.80;;;1.17;;
53718;SDS011;39616;48.872;9.390;2022-11-20T10:02:15;0.70;;;0.70;;
53718;SDS011;39616;48.872;9.390;2022-11-20T10:07:38;5.05;;;4.75;;
53718;SDS011;39616;48.872;9.390;2022-11-20T10:10:18;2.80;;;1.50;;
53718;SDS011;39616;48.872;9.390;2022-11-20T10:16:05;0.70;;;0.70;;
53718;SDS011;39616;48.872;9.390;2022-11-20T10:21:54;0.82;;;0.60;;
53718;SDS011;39616;48.872;9.390;2022-11-20T10:24:44;6.00;;;2.72;;
53718;SDS011;39616;48.872;9.390;2022-11-20T10:27:37;0.73;;;0.73;;
53718;SDS011;39616;48.872;9.390;2022-11-20T10:30:19;3.15;;;1.30;;
53718;SDS011;39616;48.872;9.390;2022-11-20T10:32:52;3.70;;;0.63;;
53718;SDS011;39616;48.872;9.390;2022-11-20T10:38:09;0.50;;;0.50;;
53718;SDS011;39616;48.872;9.390;2022-11-20T10:40:57;2.33;;;0.60;;
53718;SDS011;39616;48.872;9.390;2022-11-20T10:47:05;1.27;;;0.88;;
53718;SDS011;39616;48.872;9.390;2022-11-20T10:49:49;0.73;;;0.60;;
53718;SDS011;39616;48.872;9.390;2022-11-20T11:01:18;1.88;;;0.73;;
53718;SDS011;39616;48.872;9.390;2022-11-20T11:03:53;1.77;;;0.80;;
53718;SDS011;39616;48.872;9.390;2022-11-20T11:06:29;0.70;;;0.70;;
53718;SDS011;39616;48.872;9.390;2022-11-20T11:09:10;1.02;;;0.70;;
53718;SDS011;39616;48.872;9.390;2022-11-20T11:11:51;0.73;;;0.60;;
53718;SDS011;39616;48.872;9.390;2022-11-20T11:14:22;0.77;;;0.63;;
53718;SDS011;39616;48.872;9.390;2022-11-20T11:16:55;1.65;;;0.80;;
53718;SDS011;39616;48.872;9.390;2022-11-20T11:19:26;2.58;;;0.63;;
53718;SDS011;39616;48.872;9.390;2022-11-20T11:21:57;0.80;;;0.80;;
53718;SDS011;39616;48.872;9.390;2022-11-20T11:24:28;1.00;;;0.88;;
53718;SDS011;39616;48.872;9.390;2022-11-20T11:27:00;1.55;;;0.93;;
53718;SDS011;39616;48.872;9.390;2022-11-20T11:29:34;1.10;;;0.90;;
53718;SDS011;39616;48.872;9.390;2022-11-20T11:34:41;1.20;;;1.10;;
53718;SDS011;39616;48.872;9.390;2022-11-20T11:37:18;2.25;;;0.98;;
53718;SDS011;39616;48.872;9.390;2022-11-20T11:39:54;1.00;;;0.90;;
53718;SDS011;39616;48.872;9.390;2022-11-20T11:42:24;0.98;;;0.98;;
53718;SDS011;39616;48.872;9.390;2022-11-20T11:44:54;1.58;;;1.10;;
53718;SDS011;39616;48.872;9.390;2022-11-20T11:53:13;0.85;;;0.80;;
53718;SDS011;39616;48.872;9.390;2022-11-20T12:01:10;0.93;;;0.70;;
53718;SDS011;39616;48.872;9.390;2022-11-20T12:07:20;0.98;;;0.88;;
53718;SDS011;39616;48.872;9.390;2022-11-20T12:10:02;6.07;;;1.05;;
53718;SDS011;39616;48.872;9.390;2022-11-20T12:12:36;2.28;;;1.45;;
53718;SDS011;39616;48.872;9.390;2022-11-20T12:15:12;1.77;;;0.60;;
53718;SDS011;39616;48.872;9.390;2022-11-20T12:17:46;1.73;;;0.85;;
53718;SDS011;39616;48.872;9.390;2022-11-20T12:20:16;1.42;;;1.27;;
53718;SDS011;39616;48.872;9.390;2022-11-20T12:25:32;3.72;;;1.00;;
53718;SDS011;39616;48.872;9.390;2022-11-20T12:39:28;1.23;;;0.70;;
53718;SDS011;39616;48.872;9.390;2022-11-20T12:51:06;2.28;;;0.85;;
53718;SDS011;39616;48.872;9.390;2022-11-20T13:05:36;1.80;;;0.50;;
53718;SDS011;39616;48.872;9.390;2022-11-20T13:08:23;0.75;;;0.75;;
53718;SDS011;39616;48.872;9.390;2022-11-20T13:19:20;0.50;;;0.50;;
53718;SDS011;39616;48.872;9.390;2022-11-20T13:21:51;0.70;;;0.55;;
53718;SDS011;39616;48.872;9.390;2022-11-20T13:24:26;1.42;;;0.50;;
53718;SDS011;39616;48.872;9.390;2022-11-20T13:29:43;2.70;;;0.65;;
53718;SDS011;39616;48.872;9.390;2022-11-20T13:32:18;0.43;;;0.43;;
53718;SDS011;39616;48.872;9.390;2022-11-20T13:34:52;4.13;;;0.50;;
53718;SDS011;39616;48.872;9.390;2022-11-20T13:42:44;1.60;;;0.70;;
53718;SDS011;39616;48.872;9.390;2022-11-20T13:45:29;3.33;;;0.60;;
53718;SDS011;39616;48.872;9.390;2022-11-20T13:48:03;0.70;;;0.55;;
53718;SDS011;39616;48.872;9.390;2022-11-20T13:50:49;1.75;;;0.60;;
53718;SDS011;39616;48.872;9.390;2022-11-20T13:59:32;2.47;;;0.43;;
53718;SDS011;39616;48.872;9.390;2022-11-20T14:02:14;2.25;;;0.50;;
53718;SDS011;39616;48.872;9.390;2022-11-20T14:04:47;0.60;;;0.50;;
53718;SDS011;39616;48.872;9.390;2022-11-20T14:07:21;2.60;;;0.47;;
53718;SDS011;39616;48.872;9.390;2022-11-20T14:09:56;1.95;;;0.82;;
53718;SDS011;39616;48.872;9.390;2022-11-20T14:12:31;5.75;;;1.40;;
53718;SDS011;39616;48.872;9.390;2022-11-20T14:17:34;9.70;;;2.97;;
53718;SDS011;39616;48.872;9.390;2022-11-20T14:20:11;1.35;;;0.60;;
53718;SDS011;39616;48.872;9.390;2022-11-20T14:22:47;3.38;;;0.60;;
53718;SDS011;39616;48.872;9.390;2022-11-20T14:25:21;2.17;;;0.60;;
53718;SDS011;39616;48.872;9.390;2022-11-20T14:27:54;0.85;;;0.60;;
53718;SDS011;39616;48.872;9.390;2022-11-20T14:30:26;0.65;;;0.60;;
53718;SDS011;39616;48.872;9.390;2022-11-20T14:33:01;1.83;;;0.50;;
53718;SDS011;39616;48.872;9.390;2022-11-20T14:35:36;1.20;;;0.60;;
53718;SDS011;39616;48.872;9.390;2022-11-20T14:38:26;2.67;;;0.50;;
53718;SDS011;39616;48.872;9.390;2022-11-20T14:41:08;0.95;;;0.60;;
53718;SDS011;39616;48.872;9.390;2022-11-20T14:44:08;3.08;;;0.65;;
53718;SDS011;39616;48.872;9.390;2022-11-20T14:46:40;2.70;;;0.50;;
53718;SDS011;39616;48.872;9.390;2022-11-20T14:49:12;0.50;;;0.50;;
53718;SDS011;39616;48.872;9.390;2022-11-20T14:51:42;0.60;;;0.60;;
53718;SDS011;39616;48.872;9.390;2022-11-20T14:54:14;1.27;;;0.40;;
53718;SDS011;39616;48.872;9.390;2022-11-20T14:56:59;0.68;;;0.50;;
53718;SDS011;39616;48.872;9.390;2022-11-20T15:02:05;1.38;;;0.50;;
53718;SDS011;39616;48.872;9.390;2022-11-20T15:04:56;1.20;;;0.65;;
53718;SDS011;39616;48.872;9.390;2022-11-20T15:07:33;1.95;;;0.57;;
53718;SDS011;39616;48.872;9.390;2022-11-20T15:12:52;3.08;;;0.70;;
53718;SDS011;39616;48.872;9.390;2022-11-20T15:18:10;2.15;;;0.63;;
53718;SDS011;39616;48.872;9.390;2022-11-20T15:20:43;0.75;;;0.60;;
53718;SDS011;39616;48.872;9.390;2022-11-20T15:23:17;1.45;;;0.52;;
53718;SDS011;39616;48.872;9.390;2022-11-20T15:25:48;0.90;;;0.73;;
53718;SDS011;39616;48.872;9.390;2022-11-20T15:31:03;2.75;;;0.80;;
53718;SDS011;39616;48.872;9.390;2022-11-20T15:33:35;1.95;;;1.10;;
53718;SDS011;39616;48.872;9.390;2022-11-20T15:36:05;3.92;;;0.80;;
53718;SDS011;39616;48.872;9.390;2022-11-20T15:38:36;2.38;;;0.90;;
53718;SDS011;39616;48.872;9.390;2022-11-20T15:41:06;2.45;;;0.80;;
53718;SDS011;39616;48.872;9.390;2022-11-20T15:43:37;1.20;;;0.80;;
53718;SDS011;39616;48.872;9.390;2022-11-20T15:46:13;1.50;;;0.90;;
53718;SDS011;39616;48.872;9.390;2022-11-20T15:48:48;2.85;;;1.30;;
53718;SDS011;39616;48.872;9.390;2022-11-20T15:51:28;2.38;;;1.20;;
53718;SDS011;39616;48.872;9.390;2022-11-20T15:54:21;2.17;;;1.05;;
53718;SDS011;39616;48.872;9.390;2022-11-20T15:56:52;2.20;;;1.30;;
53718;SDS011;39616;48.872;9.390;2022-11-20T15:59:22;7.57;;;1.10;;
53718;SDS011;39616;48.872;9.390;2022-11-20T16:01:53;2.20;;;1.20;;
53718;SDS011;39616;48.872;9.390;2022-11-20T16:04:23;2.95;;;1.00;;
53718;SDS011;39616;48.872;9.390;2022-11-20T16:06:53;4.25;;;1.27;;
53718;SDS011;39616;48.872;9.390;2022-11-20T16:09:23;2.97;;;1.05;;
53718;SDS011;39616;48.872;9.390;2022-11-20T16:11:54;2.33;;;0.90;;
53718;SDS011;39616;48.872;9.390;2022-11-20T16:14:25;2.35;;;1.13;;
53718;SDS011;39616;48.872;9.390;2022-11-20T16:17:14;1.48;;;0.93;;
53718;SDS011;39616;48.872;9.390;2022-11-20T16:19:44;3.55;;;1.10;;
53718;SDS011;39616;48.872;9.390;2022-11-20T16:22:14;2.20;;;1.05;;
53718;SDS011;39616;48.872;9.390;2022-11-20T16:24:45;2.15;;;1.20;;
53718;SDS011;39616;48.872;9.390;2022-11-20T16:27:16;2.17;;;1.30;;
53718;SDS011;39616;48.872;9.390;2022-11-20T16:29:46;1.75;;;1.23;;
53718;SDS011;39616;48.872;9.390;2022-11-20T16:32:16;1.83;;;1.10;;
53718;SDS011;39616;48.872;9.390;2022-11-20T16:34:47;1.48;;;1.10;;
53718;SDS011;39616;48.872;9.390;2022-11-20T16:37:17;3.08;;;1.13;;
53718;SDS011;39616;48.872;9.390;2022-11-20T16:39:47;4.07;;;1.40;;
53718;SDS011;39616;48.872;9.390;2022-11-20T16:42:18;2.67;;;1.42;;
53718;SDS011;39616;48.872;9.390;2022-11-20T16:44:48;2.72;;;1.30;;
53718;SDS011;39616;48.872;9.390;2022-11-20T16:47:19;3.00;;;1.35;;
53718;SDS011;39616;48.872;9.390;2022-11-20T16:49:49;2.42;;;1.30;;
53718;SDS011;39616;48.872;9.390;2022-11-20T16:52:19;1.33;;;1.10;;
53718;SDS011;39616;48.872;9.390;2022-11-20T16:54:49;6.72;;;2.08;;
53718;SDS011;39616;48.872;9.390;2022-11-20T16:57:20;1.33;;;1.23;;
53718;SDS011;39616;48.872;9.390;2022-11-20T16:59:51;4.45;;;2.85;;
53718;SDS011;39616;48.872;9.390;2022-11-20T17:02:21;2.30;;;1.90;;
53718;SDS011;39616;48.872;9.390;2022-11-20T17:04:52;1.70;;;1.40;;
53718;SDS011;39616;48.872;9.390;2022-11-20T17:07:22;3.60;;;1.35;;
53718;SDS011;39616;48.872;9.390;2022-11-20T17:09:52;3.50;;;1.83;;
53718;SDS011;39616;48.872;9.390;2022-11-20T17:12:23;3.17;;;1.75;;
53718;SDS011;39616;48.872;9.390;2022-11-20T17:14:53;3.08;;;1.48;;
53718;SDS011;39616;48.872;9.390;2022-11-20T17:17:23;2.53;;;1.20;;